createdAt,value
2018-08-09T00:00:28.308Z,0.00
2018-08-09T00:01:28.310Z,0.00
2018-08-09T00:02:28.314Z,0.00
2018-08-09T00:03:28.313Z,0.00
2018-08-09T00:04:28.316Z,0.00
2018-08-09T00:05:28.322Z,0.00
2018-08-09T00:06:28.323Z,0.00
2018-08-09T00:07:28.326Z,0.00
2018-08-09T00:08:28.331Z,0.00
2018-08-09T00:09:28.334Z,0.00
2018-08-09T00:10:28.337Z,0.00
2018-08-09T00:11:28.341Z,0.00
2018-08-09T00:12:28.344Z,0.00
2018-08-09T00:13:28.349Z,0.00
2018-08-09T00:14:28.351Z,0.00
2018-08-09T00:15:28.356Z,0.00
2018-08-09T00:16:28.360Z,0.00
2018-08-09T00:17:28.363Z,0.00
2018-08-09T00:18:28.366Z,0.00
2018-08-09T00:19:28.369Z,0.00
2018-08-09T00:20:28.374Z,0.00
2018-08-09T00:21:28.377Z,0.00
2018-08-09T00:22:28.380Z,0.00
2018-08-09T00:23:28.394Z,0.00
2018-08-09T00:24:28.393Z,0.00
2018-08-09T00:25:28.392Z,0.00
2018-08-09T00:26:28.394Z,0.00
2018-08-09T00:27:28.401Z,0.00
2018-08-09T00:28:28.402Z,0.00
2018-08-09T00:29:28.407Z,0.00
2018-08-09T00:30:28.409Z,0.00
2018-08-09T00:31:28.414Z,0.00
2018-08-09T00:32:28.416Z,0.00
2018-08-09T00:33:28.421Z,0.00
2018-08-09T00:34:28.422Z,0.00
2018-08-09T00:35:28.426Z,0.00
2018-08-09T00:36:28.431Z,0.00
2018-08-09T00:37:28.437Z,0.00
2018-08-09T00:38:28.438Z,0.00
2018-08-09T00:39:28.441Z,0.00
2018-08-09T00:40:28.444Z,0.00
2018-08-09T00:41:28.448Z,0.00
2018-08-09T00:42:28.451Z,0.00
2018-08-09T00:43:28.456Z,0.00
2018-08-09T00:44:28.461Z,0.00
2018-08-09T00:45:28.464Z,0.00
2018-08-09T00:46:28.466Z,0.00
2018-08-09T00:47:28.469Z,0.00
2018-08-09T00:48:28.474Z,0.00
2018-08-09T00:49:28.478Z,0.00
2018-08-09T00:50:28.480Z,0.00
2018-08-09T00:51:28.483Z,0.00
2018-08-09T00:52:28.490Z,0.00
2018-08-09T00:53:28.492Z,0.00
2018-08-09T00:54:28.495Z,0.00
2018-08-09T00:55:28.498Z,0.00
2018-08-09T00:56:28.501Z,0.00
2018-08-09T00:57:28.510Z,0.00
2018-08-09T00:58:28.509Z,0.00
2018-08-09T00:59:28.512Z,0.00
2018-08-09T01:00:28.515Z,0.00
2018-08-09T01:01:28.519Z,0.00
2018-08-09T01:02:28.539Z,0.00
2018-08-09T01:03:28.527Z,0.00
2018-08-09T01:04:28.530Z,0.00
2018-08-09T01:05:28.534Z,0.00
2018-08-09T01:06:28.536Z,0.00
2018-08-09T01:07:28.543Z,0.00
2018-08-09T01:08:28.544Z,0.00
2018-08-09T01:09:28.547Z,0.00
2018-08-09T01:10:28.556Z,0.00
2018-08-09T01:11:28.561Z,0.00
2018-08-09T01:12:28.559Z,0.00
2018-08-09T01:13:28.573Z,0.00
2018-08-09T01:14:28.573Z,0.00
2018-08-09T01:15:28.572Z,0.00
2018-08-09T01:16:28.574Z,0.00
2018-08-09T01:17:28.576Z,0.00
2018-08-09T01:18:28.578Z,0.00
2018-08-09T01:19:28.582Z,0.00
2018-08-09T01:20:28.585Z,0.00
2018-08-09T01:21:28.591Z,0.00
2018-08-09T01:22:28.592Z,0.00
2018-08-09T01:23:28.596Z,0.00
2018-08-09T01:24:28.599Z,0.00
2018-08-09T01:25:28.603Z,0.00
2018-08-09T01:26:28.607Z,0.00
2018-08-09T01:27:28.612Z,0.00
2018-08-09T01:28:28.613Z,0.00
2018-08-09T01:29:28.617Z,0.00
2018-08-09T01:30:28.623Z,0.00
2018-08-09T01:31:28.623Z,0.00
2018-08-09T01:32:28.627Z,0.00
2018-08-09T01:33:28.631Z,0.00
2018-08-09T01:34:28.637Z,0.00
2018-08-09T01:35:28.638Z,0.00
2018-08-09T01:36:28.641Z,0.00
2018-08-09T01:37:28.644Z,0.00
2018-08-09T01:38:28.648Z,0.00
2018-08-09T01:39:28.651Z,0.00
2018-08-09T01:40:28.654Z,0.00
2018-08-09T01:41:28.657Z,0.00
2018-08-09T01:42:28.660Z,0.00
2018-08-09T01:43:28.670Z,0.00
2018-08-09T01:44:28.667Z,0.00
2018-08-09T01:45:28.671Z,0.00
2018-08-09T01:46:28.673Z,0.00
2018-08-09T01:47:28.677Z,0.00
2018-08-09T01:48:28.684Z,0.00
2018-08-09T01:49:28.685Z,0.00
2018-08-09T01:50:28.689Z,0.00
2018-08-09T01:51:28.691Z,0.00
2018-08-09T01:52:28.696Z,0.00
2018-08-09T01:53:28.699Z,0.00
2018-08-09T01:54:28.702Z,0.00
2018-08-09T01:55:28.705Z,0.00
2018-08-09T01:56:28.706Z,0.00
2018-08-09T01:57:28.711Z,0.00
2018-08-09T01:58:28.716Z,0.00
2018-08-09T01:59:28.719Z,0.00
2018-08-09T02:00:28.722Z,0.00
2018-08-09T02:01:28.725Z,0.00
2018-08-09T02:02:28.729Z,0.00
2018-08-09T02:03:28.732Z,0.00
2018-08-09T02:04:28.735Z,0.00
2018-08-09T02:05:28.739Z,0.00
2018-08-09T02:06:28.746Z,0.00
2018-08-09T02:07:28.746Z,0.00
2018-08-09T02:08:28.749Z,0.00
2018-08-09T02:09:28.754Z,0.00
2018-08-09T02:10:28.755Z,0.00
2018-08-09T02:11:28.759Z,0.00
2018-08-09T02:12:28.763Z,0.00
2018-08-09T02:13:28.766Z,0.00
2018-08-09T02:14:28.768Z,0.00
2018-08-09T02:15:28.772Z,0.00
2018-08-09T02:16:28.776Z,0.00
2018-08-09T02:17:28.780Z,0.00
2018-08-09T02:18:28.782Z,0.00
2018-08-09T02:19:28.785Z,0.00
2018-08-09T02:20:28.788Z,0.00
2018-08-09T02:21:28.791Z,0.00
2018-08-09T02:22:28.794Z,0.00
2018-08-09T02:23:28.798Z,0.00
2018-08-09T02:24:28.803Z,0.00
2018-08-09T02:25:28.806Z,0.00
2018-08-09T02:26:28.809Z,0.00
2018-08-09T02:27:28.812Z,0.00
2018-08-09T02:28:28.815Z,0.00
2018-08-09T02:29:28.823Z,0.00
2018-08-09T02:30:28.823Z,0.00
2018-08-09T02:31:28.825Z,0.00
2018-08-09T02:32:28.829Z,0.00
2018-08-09T02:33:28.834Z,0.00
2018-08-09T02:34:28.837Z,0.00
2018-08-09T02:35:28.839Z,0.00
2018-08-09T02:36:28.843Z,0.00
2018-08-09T02:37:28.846Z,0.00
2018-08-09T02:38:28.853Z,0.00
2018-08-09T02:39:28.853Z,0.00
2018-08-09T02:40:28.858Z,0.00
2018-08-09T02:41:28.860Z,0.00
2018-08-09T02:42:28.862Z,0.00
2018-08-09T02:43:28.867Z,0.00
2018-08-09T02:44:28.870Z,0.00
2018-08-09T02:45:28.876Z,0.00
2018-08-09T02:46:28.876Z,0.00
2018-08-09T02:47:28.880Z,0.00
2018-08-09T02:48:28.884Z,0.00
2018-08-09T02:49:28.890Z,0.00
2018-08-09T02:50:28.891Z,0.00
2018-08-09T02:51:28.894Z,0.00
2018-08-09T02:52:28.896Z,0.00
2018-08-09T02:53:28.901Z,0.00
2018-08-09T02:54:28.908Z,0.00
2018-08-09T02:55:28.907Z,0.00
2018-08-09T02:56:28.915Z,0.00
2018-08-09T02:57:28.915Z,0.00
2018-08-09T02:58:28.917Z,0.00
2018-08-09T02:59:28.921Z,0.00
2018-08-09T03:00:28.924Z,0.00
2018-08-09T03:01:28.930Z,0.00
2018-08-09T03:02:28.932Z,0.00
2018-08-09T03:03:28.934Z,0.00
2018-08-09T03:04:28.938Z,0.00
2018-08-09T03:05:28.951Z,0.00
2018-08-09T03:06:28.945Z,0.00
2018-08-09T03:07:28.948Z,0.00
2018-08-09T03:08:28.951Z,0.00
2018-08-09T03:09:28.957Z,0.00
2018-08-09T03:10:28.957Z,0.00
2018-08-09T03:11:28.967Z,0.00
2018-08-09T03:12:28.967Z,0.00
2018-08-09T03:13:28.968Z,0.00
2018-08-09T03:14:28.971Z,0.00
2018-08-09T03:15:28.973Z,0.00
2018-08-09T03:16:28.978Z,0.00
2018-08-09T03:17:28.980Z,0.00
2018-08-09T03:18:28.983Z,0.00
2018-08-09T03:19:28.986Z,0.00
2018-08-09T03:20:28.990Z,0.00
2018-08-09T03:21:28.994Z,0.00
2018-08-09T03:22:28.996Z,0.00
2018-08-09T03:23:28.999Z,0.00
2018-08-09T03:24:29.047Z,0.00
2018-08-09T03:25:29.007Z,0.00
2018-08-09T03:26:29.010Z,0.00
2018-08-09T03:27:29.012Z,0.00
2018-08-09T03:28:29.017Z,0.00
2018-08-09T03:29:29.019Z,0.00
2018-08-09T03:30:29.021Z,0.00
2018-08-09T03:31:29.031Z,0.00
2018-08-09T03:32:29.028Z,0.00
2018-08-09T03:33:29.031Z,0.00
2018-08-09T03:34:29.034Z,0.00
2018-08-09T03:35:29.039Z,0.00
2018-08-09T03:36:29.040Z,0.00
2018-08-09T03:37:29.044Z,0.00
2018-08-09T03:38:29.047Z,0.00
2018-08-09T03:39:29.052Z,0.00
2018-08-09T03:40:29.055Z,0.00
2018-08-09T03:41:29.058Z,0.00
2018-08-09T03:42:29.064Z,0.00
2018-08-09T03:43:29.064Z,0.00
2018-08-09T03:44:29.097Z,0.00
2018-08-09T03:45:29.072Z,0.00
2018-08-09T03:46:29.074Z,0.00
2018-08-09T03:47:29.076Z,0.00
2018-08-09T03:48:29.081Z,0.00
2018-08-09T03:49:29.084Z,0.00
2018-08-09T03:50:29.086Z,0.00
2018-08-09T03:51:29.089Z,0.00
2018-08-09T03:52:29.092Z,0.00
2018-08-09T03:53:29.097Z,0.00
2018-08-09T03:54:29.099Z,0.00
2018-08-09T03:55:29.102Z,0.00
2018-08-09T03:56:29.105Z,0.00
2018-08-09T03:57:29.109Z,0.00
2018-08-09T03:58:29.112Z,0.00
2018-08-09T03:59:29.116Z,0.00
2018-08-09T04:00:29.118Z,0.00
2018-08-09T04:01:29.122Z,0.00
2018-08-09T04:02:29.127Z,0.00
2018-08-09T04:03:29.131Z,0.00
2018-08-09T04:04:29.131Z,0.00
2018-08-09T04:05:29.134Z,0.00
2018-08-09T04:06:29.137Z,0.00
2018-08-09T04:07:29.140Z,0.00
2018-08-09T04:08:29.143Z,0.00
2018-08-09T04:09:29.148Z,0.00
2018-08-09T04:10:29.149Z,0.00
2018-08-09T04:11:29.153Z,0.00
2018-08-09T04:12:29.156Z,5.63
2018-08-09T04:13:29.159Z,5.63
2018-08-09T04:14:29.162Z,5.63
2018-08-09T04:15:29.167Z,5.63
2018-08-09T04:16:29.169Z,5.63
2018-08-09T04:17:29.172Z,5.63
2018-08-09T04:18:29.175Z,5.63
2018-08-09T04:19:29.176Z,5.63
2018-08-09T04:20:29.182Z,5.63
2018-08-09T04:21:29.184Z,5.63
2018-08-09T04:22:29.186Z,5.63
2018-08-09T04:23:29.189Z,5.63
2018-08-09T04:24:29.192Z,5.63
2018-08-09T04:25:29.197Z,5.63
2018-08-09T04:26:29.233Z,5.63
2018-08-09T04:27:29.201Z,11.25
2018-08-09T04:28:29.205Z,11.25
2018-08-09T04:29:29.207Z,11.25
2018-08-09T04:30:29.214Z,11.25
2018-08-09T04:31:29.213Z,11.25
2018-08-09T04:32:29.217Z,11.25
2018-08-09T04:33:29.219Z,11.25
2018-08-09T04:34:29.222Z,11.25
2018-08-09T04:35:29.226Z,11.25
2018-08-09T04:36:29.228Z,11.25
2018-08-09T04:37:29.238Z,11.25
2018-08-09T04:38:29.234Z,16.88
2018-08-09T04:39:29.237Z,16.88
2018-08-09T04:40:29.242Z,16.88
2018-08-09T04:41:29.244Z,16.88
2018-08-09T04:42:29.245Z,16.88
2018-08-09T04:43:29.250Z,16.88
2018-08-09T04:44:29.253Z,16.88
2018-08-09T04:45:29.256Z,22.50
2018-08-09T04:46:29.259Z,22.50
2018-08-09T04:47:29.264Z,22.50
2018-08-09T04:48:29.265Z,22.50
2018-08-09T04:49:29.268Z,22.50
2018-08-09T04:50:29.270Z,22.50
2018-08-09T04:51:29.273Z,22.50
2018-08-09T04:52:29.277Z,22.50
2018-08-09T04:53:29.280Z,22.50
2018-08-09T04:54:29.281Z,28.13
2018-08-09T04:55:29.285Z,28.13
2018-08-09T04:56:29.288Z,28.13
2018-08-09T04:57:29.291Z,28.13
2018-08-09T04:58:29.321Z,28.13
2018-08-09T04:59:29.296Z,28.13
2018-08-09T05:00:29.300Z,28.13
2018-08-09T05:01:29.304Z,33.75
2018-08-09T05:02:29.309Z,33.75
2018-08-09T05:03:29.314Z,33.75
2018-08-09T05:04:29.312Z,33.75
2018-08-09T05:05:29.315Z,28.13
2018-08-09T05:06:29.323Z,28.13
2018-08-09T05:07:29.321Z,33.75
2018-08-09T05:08:29.324Z,33.75
2018-08-09T05:09:29.327Z,33.75
2018-08-09T05:10:29.331Z,33.75
2018-08-09T05:11:29.332Z,39.38
2018-08-09T05:12:29.335Z,39.38
2018-08-09T05:13:29.340Z,39.38
2018-08-09T05:14:29.341Z,39.38
2018-08-09T05:15:29.344Z,39.38
2018-08-09T05:16:29.348Z,45.00
2018-08-09T05:17:29.354Z,45.00
2018-08-09T05:18:29.353Z,45.00
2018-08-09T05:19:29.356Z,45.00
2018-08-09T05:20:29.360Z,45.00
2018-08-09T05:21:29.364Z,50.63
2018-08-09T05:22:29.365Z,45.00
2018-08-09T05:23:29.370Z,50.63
2018-08-09T05:24:29.373Z,50.63
2018-08-09T05:25:29.375Z,50.63
2018-08-09T05:26:29.408Z,50.63
2018-08-09T05:27:29.382Z,50.63
2018-08-09T05:28:29.384Z,56.25
2018-08-09T05:29:29.389Z,56.25
2018-08-09T05:30:29.391Z,56.25
2018-08-09T05:31:29.394Z,56.25
2018-08-09T05:32:29.397Z,56.25
2018-08-09T05:33:29.401Z,56.25
2018-08-09T05:34:29.403Z,56.25
2018-08-09T05:35:29.407Z,56.25
2018-08-09T05:36:29.410Z,56.25
2018-08-09T05:37:29.414Z,56.25
2018-08-09T05:38:29.416Z,61.88
2018-08-09T05:39:29.420Z,61.88
2018-08-09T05:40:29.424Z,61.88
2018-08-09T05:41:29.426Z,61.88
2018-08-09T05:42:29.428Z,61.88
2018-08-09T05:43:29.435Z,67.50
2018-08-09T05:44:29.436Z,67.50
2018-08-09T05:45:29.443Z,67.50
2018-08-09T05:46:29.442Z,67.50
2018-08-09T05:47:29.446Z,67.50
2018-08-09T05:48:29.450Z,67.50
2018-08-09T05:49:29.453Z,67.50
2018-08-09T05:50:29.456Z,73.13
2018-08-09T05:51:29.502Z,73.13
2018-08-09T05:52:29.463Z,73.13
2018-08-09T05:53:29.466Z,73.13
2018-08-09T05:54:29.468Z,73.13
2018-08-09T05:55:29.475Z,78.75
2018-08-09T05:56:29.476Z,78.75
2018-08-09T05:57:29.479Z,78.75
2018-08-09T05:58:29.522Z,78.75
2018-08-09T05:59:29.509Z,78.75
2018-08-09T06:00:29.490Z,84.38
2018-08-09T06:01:29.494Z,84.38
2018-08-09T06:02:29.496Z,84.38
2018-08-09T06:03:29.501Z,84.38
2018-08-09T06:04:29.503Z,84.38
2018-08-09T06:05:29.563Z,90.00
2018-08-09T06:06:29.511Z,84.38
2018-08-09T06:07:29.516Z,84.38
2018-08-09T06:08:29.520Z,84.38
2018-08-09T06:09:29.527Z,84.38
2018-08-09T06:10:29.528Z,90.00
2018-08-09T06:11:29.529Z,90.00
2018-08-09T06:12:29.533Z,90.00
2018-08-09T06:13:29.675Z,90.00
2018-08-09T06:14:29.545Z,95.63
2018-08-09T06:15:29.545Z,95.63
2018-08-09T06:16:29.549Z,95.63
2018-08-09T06:17:29.552Z,101.25
2018-08-09T06:18:29.554Z,101.25
2018-08-09T06:19:29.560Z,101.25
2018-08-09T06:20:29.568Z,106.88
2018-08-09T06:21:29.662Z,106.88
2018-08-09T06:22:29.570Z,106.88
2018-08-09T06:23:29.575Z,112.50
2018-08-09T06:24:29.578Z,112.50
2018-08-09T06:25:29.584Z,106.88
2018-08-09T06:26:29.652Z,101.25
2018-08-09T06:27:29.591Z,101.25
2018-08-09T06:28:29.594Z,95.63
2018-08-09T06:29:29.600Z,95.63
2018-08-09T06:30:29.602Z,118.13
2018-08-09T06:31:29.605Z,123.75
2018-08-09T06:32:29.611Z,123.75
2018-08-09T06:33:29.655Z,123.75
2018-08-09T06:34:29.618Z,123.75
2018-08-09T06:35:29.627Z,123.75
2018-08-09T06:36:29.627Z,123.75
2018-08-09T06:37:29.631Z,123.75
2018-08-09T06:38:29.635Z,123.75
2018-08-09T06:39:29.638Z,135.00
2018-08-09T06:40:29.646Z,129.38
2018-08-09T06:41:29.648Z,123.75
2018-08-09T06:42:29.651Z,112.50
2018-08-09T06:43:29.656Z,129.38
2018-08-09T06:44:29.662Z,135.00
2018-08-09T06:45:29.665Z,135.00
2018-08-09T06:46:29.669Z,118.13
2018-08-09T06:47:29.684Z,123.75
2018-08-09T06:48:29.683Z,112.50
2018-08-09T06:49:29.683Z,123.75
2018-08-09T06:50:29.688Z,123.75
2018-08-09T06:51:29.693Z,118.13
2018-08-09T06:52:29.696Z,135.00
2018-08-09T06:53:29.700Z,135.00
2018-08-09T06:54:29.704Z,135.00
2018-08-09T06:55:29.710Z,140.63
2018-08-09T06:56:29.715Z,146.25
2018-08-09T06:57:29.719Z,146.25
2018-08-09T06:58:29.723Z,146.25
2018-08-09T06:59:29.727Z,151.88
2018-08-09T07:00:29.733Z,157.50
2018-08-09T07:01:29.737Z,157.50
2018-08-09T07:02:29.741Z,213.75
2018-08-09T07:03:29.747Z,860.63
2018-08-09T07:04:29.752Z,1591.88
2018-08-09T07:05:29.757Z,1856.25
2018-08-09T07:06:29.763Z,2238.75
2018-08-09T07:07:29.768Z,2536.88
2018-08-09T07:08:29.774Z,2295.00
2018-08-09T07:09:29.784Z,2143.13
2018-08-09T07:10:29.788Z,1963.13
2018-08-09T07:11:29.797Z,1501.88
2018-08-09T07:12:29.804Z,1327.50
2018-08-09T07:13:29.813Z,506.25
2018-08-09T07:14:29.821Z,466.88
2018-08-09T07:15:29.829Z,343.13
2018-08-09T07:16:29.839Z,759.38
2018-08-09T07:17:29.850Z,652.50
2018-08-09T07:18:29.856Z,275.63
2018-08-09T07:19:29.869Z,292.50
2018-08-09T07:20:30.017Z,405.00
2018-08-09T07:21:29.885Z,478.13
2018-08-09T07:22:29.892Z,388.13
2018-08-09T07:23:29.902Z,326.25
2018-08-09T07:24:29.911Z,236.25
2018-08-09T07:25:29.918Z,225.00
2018-08-09T07:26:29.990Z,219.38
2018-08-09T07:27:29.937Z,219.38
2018-08-09T07:28:29.945Z,225.00
2018-08-09T07:29:29.954Z,225.00
2018-08-09T07:30:29.962Z,230.63
2018-08-09T07:31:29.970Z,236.25
2018-08-09T07:32:29.978Z,225.00
2018-08-09T07:33:29.985Z,281.25
2018-08-09T07:34:29.993Z,410.63
2018-08-09T07:35:30.002Z,225.00
2018-08-09T07:36:30.015Z,303.75
2018-08-09T07:37:30.019Z,258.75
2018-08-09T07:38:30.025Z,219.38
2018-08-09T07:39:30.044Z,680.63
2018-08-09T07:40:30.042Z,1333.13
2018-08-09T07:41:30.050Z,343.13
2018-08-09T07:42:30.056Z,208.13
2018-08-09T07:43:30.064Z,202.50
2018-08-09T07:44:30.072Z,208.13
2018-08-09T07:45:30.080Z,208.13
2018-08-09T07:46:30.087Z,213.75
2018-08-09T07:47:30.094Z,225.00
2018-08-09T07:48:30.109Z,208.13
2018-08-09T07:49:30.111Z,191.25
2018-08-09T07:50:30.117Z,208.13
2018-08-09T07:51:30.127Z,180.00
2018-08-09T07:52:30.130Z,185.63
2018-08-09T07:53:30.138Z,196.88
2018-08-09T07:54:30.146Z,219.38
2018-08-09T07:55:30.153Z,371.25
2018-08-09T07:56:30.160Z,444.38
2018-08-09T07:57:30.233Z,371.25
2018-08-09T07:58:30.173Z,523.13
2018-08-09T07:59:30.181Z,438.75
2018-08-09T08:00:30.189Z,1074.38
2018-08-09T08:01:30.197Z,1608.75
2018-08-09T08:02:30.203Z,281.25
2018-08-09T08:03:30.212Z,270.00
2018-08-09T08:04:30.218Z,433.13
2018-08-09T08:05:30.295Z,894.38
2018-08-09T08:06:30.234Z,1327.50
2018-08-09T08:07:30.245Z,1040.63
2018-08-09T08:08:30.300Z,528.75
2018-08-09T08:09:30.261Z,506.25
2018-08-09T08:10:30.271Z,939.38
2018-08-09T08:11:30.284Z,1710.00
2018-08-09T08:12:30.291Z,2221.88
2018-08-09T08:13:30.300Z,2047.50
2018-08-09T08:14:30.328Z,2272.50
2018-08-09T08:15:30.352Z,2098.13
2018-08-09T08:16:30.366Z,1186.88
2018-08-09T08:17:30.345Z,1248.75
2018-08-09T08:18:30.356Z,2250.00
2018-08-09T08:19:30.367Z,2745.00
2018-08-09T08:20:30.380Z,2711.25
2018-08-09T08:21:30.414Z,2503.13
2018-08-09T08:22:30.463Z,2570.63
2018-08-09T08:23:30.421Z,2340.00
2018-08-09T08:24:30.433Z,1490.63
2018-08-09T08:25:30.447Z,1293.75
2018-08-09T08:26:30.633Z,877.50
2018-08-09T08:27:30.474Z,534.38
2018-08-09T08:28:30.487Z,450.00
2018-08-09T08:29:30.501Z,573.75
2018-08-09T08:30:30.516Z,928.13
2018-08-09T08:31:30.527Z,534.38
2018-08-09T08:32:30.539Z,585.00
2018-08-09T08:33:30.552Z,900.00
2018-08-09T08:34:30.566Z,1226.25
2018-08-09T08:35:30.577Z,1276.88
2018-08-09T08:36:30.592Z,1327.50
2018-08-09T08:37:30.601Z,1794.38
2018-08-09T08:38:30.614Z,2030.63
2018-08-09T08:39:30.627Z,2306.25
2018-08-09T08:40:30.640Z,2418.75
2018-08-09T08:41:30.728Z,2334.38
2018-08-09T08:42:30.671Z,2188.13
2018-08-09T08:43:30.683Z,2261.25
2018-08-09T08:44:30.697Z,2480.63
2018-08-09T08:45:30.713Z,2407.50
2018-08-09T08:46:30.726Z,2385.00
2018-08-09T08:47:30.794Z,2278.13
2018-08-09T08:48:30.757Z,2536.88
2018-08-09T08:49:30.774Z,2143.13
2018-08-09T08:50:30.789Z,815.63
2018-08-09T08:51:30.941Z,2458.13
2018-08-09T08:52:30.823Z,2250.00
2018-08-09T08:53:30.840Z,1828.13
2018-08-09T08:54:30.855Z,1293.75
2018-08-09T08:55:30.882Z,1035.00
2018-08-09T08:56:30.888Z,590.63
2018-08-09T08:57:30.906Z,1237.50
2018-08-09T08:58:30.922Z,1299.38
2018-08-09T08:59:30.935Z,821.25
2018-08-09T09:00:30.951Z,1378.13
2018-08-09T09:01:30.973Z,1006.88
2018-08-09T09:02:30.986Z,978.75
2018-08-09T09:03:30.995Z,1575.00
2018-08-09T09:04:31.047Z,545.63
2018-08-09T09:05:31.027Z,2047.50
2018-08-09T09:06:31.039Z,1108.13
2018-08-09T09:07:31.059Z,1749.38
2018-08-09T09:08:31.068Z,1788.75
2018-08-09T09:09:31.081Z,1861.88
2018-08-09T09:10:31.096Z,2098.13
2018-08-09T09:11:31.132Z,1299.38
2018-08-09T09:12:31.125Z,1040.63
2018-08-09T09:13:31.140Z,900.00
2018-08-09T09:14:31.154Z,534.38
2018-08-09T09:15:31.167Z,461.25
2018-08-09T09:16:31.182Z,573.75
2018-08-09T09:17:31.196Z,556.88
2018-08-09T09:18:31.208Z,663.75
2018-08-09T09:19:31.221Z,495.00
2018-08-09T09:20:31.235Z,1321.88
2018-08-09T09:21:31.248Z,568.13
2018-08-09T09:22:31.275Z,663.75
2018-08-09T09:23:31.273Z,455.63
2018-08-09T09:24:31.284Z,478.13
2018-08-09T09:25:31.298Z,399.38
2018-08-09T09:26:31.308Z,871.88
2018-08-09T09:27:31.321Z,1231.88
2018-08-09T09:28:31.332Z,1563.75
2018-08-09T09:29:31.347Z,478.13
2018-08-09T09:30:31.358Z,478.13
2018-08-09T09:31:31.370Z,472.50
2018-08-09T09:32:31.383Z,1198.13
2018-08-09T09:33:31.397Z,1108.13
2018-08-09T09:34:31.407Z,1586.25
2018-08-09T09:35:31.417Z,1743.75
2018-08-09T09:36:31.431Z,1625.63
2018-08-09T09:37:31.445Z,1451.25
2018-08-09T09:38:31.457Z,1153.13
2018-08-09T09:39:31.472Z,618.75
2018-08-09T09:40:31.488Z,1372.50
2018-08-09T09:41:31.501Z,1383.75
2018-08-09T09:42:31.512Z,1417.50
2018-08-09T09:43:31.526Z,1209.38
2018-08-09T09:44:31.539Z,1293.75
2018-08-09T09:45:31.554Z,1051.88
2018-08-09T09:46:31.568Z,883.13
2018-08-09T09:47:31.856Z,1220.63
2018-08-09T09:48:31.597Z,438.75
2018-08-09T09:49:31.619Z,607.50
2018-08-09T09:50:31.627Z,635.63
2018-08-09T09:51:31.639Z,748.13
2018-08-09T09:52:31.653Z,860.63
2018-08-09T09:53:31.667Z,871.88
2018-08-09T09:54:31.681Z,832.50
2018-08-09T09:55:31.695Z,545.63
2018-08-09T09:56:31.801Z,590.63
2018-08-09T09:57:31.785Z,568.13
2018-08-09T09:58:31.948Z,534.38
2018-08-09T09:59:31.779Z,433.13
2018-08-09T10:00:31.767Z,354.38
2018-08-09T10:01:31.774Z,776.25
2018-08-09T10:02:31.787Z,770.63
2018-08-09T10:03:31.802Z,815.63
2018-08-09T10:04:31.816Z,793.13
2018-08-09T10:05:31.868Z,871.88
2018-08-09T10:06:31.841Z,871.88
2018-08-09T10:07:31.854Z,900.00
2018-08-09T10:08:31.868Z,967.50
2018-08-09T10:09:31.883Z,1006.88
2018-08-09T10:10:31.945Z,1029.38
2018-08-09T10:11:31.911Z,1068.75
2018-08-09T10:12:31.926Z,1119.38
2018-08-09T10:13:31.940Z,1237.50
2018-08-09T10:14:31.955Z,1220.63
2018-08-09T10:15:31.970Z,1265.63
2018-08-09T10:16:31.985Z,1321.88
2018-08-09T10:17:32.000Z,1355.63
2018-08-09T10:18:32.017Z,1423.13
2018-08-09T10:19:32.030Z,1344.38
2018-08-09T10:20:32.047Z,1276.88
2018-08-09T10:21:32.062Z,1226.25
2018-08-09T10:22:32.075Z,1378.13
2018-08-09T10:23:32.094Z,1226.25
2018-08-09T10:24:32.107Z,1226.25
2018-08-09T10:25:32.125Z,1327.50
2018-08-09T10:26:32.138Z,1260.00
2018-08-09T10:27:32.153Z,1265.63
2018-08-09T10:28:32.169Z,1288.13
2018-08-09T10:29:32.186Z,1288.13
2018-08-09T10:30:32.200Z,1254.38
2018-08-09T10:31:32.216Z,1265.63
2018-08-09T10:32:32.232Z,1254.38
2018-08-09T10:33:32.247Z,1310.63
2018-08-09T10:34:32.262Z,1333.13
2018-08-09T10:35:32.295Z,1321.88
2018-08-09T10:36:32.295Z,1310.63
2018-08-09T10:37:32.312Z,1310.63
2018-08-09T10:38:32.327Z,1293.75
2018-08-09T10:39:32.341Z,1305.00
2018-08-09T10:40:32.358Z,1316.25
2018-08-09T10:41:32.374Z,1355.63
2018-08-09T10:42:32.388Z,1299.38
2018-08-09T10:43:32.404Z,1243.13
2018-08-09T10:44:32.420Z,1209.38
2018-08-09T10:45:32.434Z,1186.88
2018-08-09T10:46:32.450Z,1158.75
2018-08-09T10:47:32.465Z,1170.00
2018-08-09T10:48:32.481Z,1147.50
2018-08-09T10:49:32.541Z,1085.63
2018-08-09T10:50:32.511Z,1046.25
2018-08-09T10:51:32.526Z,1051.88
2018-08-09T10:52:32.541Z,1035.00
2018-08-09T10:53:32.556Z,1006.88
2018-08-09T10:54:32.573Z,995.63
2018-08-09T10:55:32.592Z,973.13
2018-08-09T10:56:32.655Z,928.13
2018-08-09T10:57:32.618Z,855.00
2018-08-09T10:58:32.649Z,804.38
2018-08-09T10:59:32.651Z,815.63
2018-08-09T11:00:32.662Z,826.88
2018-08-09T11:01:32.678Z,810.00
2018-08-09T11:02:32.692Z,720.00
2018-08-09T11:03:32.721Z,669.38
2018-08-09T11:04:32.723Z,770.63
2018-08-09T11:05:32.738Z,765.00
2018-08-09T11:06:32.752Z,748.13
2018-08-09T11:07:32.767Z,742.50
2018-08-09T11:08:32.785Z,753.75
2018-08-09T11:09:33.820Z,736.88
2018-08-09T11:10:32.812Z,725.63
2018-08-09T11:11:32.829Z,714.38
2018-08-09T11:12:32.843Z,697.50
2018-08-09T11:13:32.858Z,686.25
2018-08-09T11:14:32.873Z,663.75
2018-08-09T11:15:32.888Z,658.13
2018-08-09T11:16:32.903Z,658.13
2018-08-09T11:17:32.919Z,652.50
2018-08-09T11:18:32.955Z,652.50
2018-08-09T11:19:32.949Z,652.50
2018-08-09T11:20:32.964Z,652.50
2018-08-09T11:21:32.985Z,646.88
2018-08-09T11:22:32.993Z,646.88
2018-08-09T11:23:33.059Z,630.00
2018-08-09T11:24:33.025Z,635.63
2018-08-09T11:25:33.039Z,652.50
2018-08-09T11:26:33.077Z,663.75
2018-08-09T11:27:33.068Z,658.13
2018-08-09T11:28:33.083Z,669.38
2018-08-09T11:29:33.131Z,663.75
2018-08-09T11:30:33.112Z,652.50
2018-08-09T11:31:33.127Z,646.88
2018-08-09T11:32:33.142Z,646.88
2018-08-09T11:33:33.157Z,652.50
2018-08-09T11:34:33.170Z,663.75
2018-08-09T11:35:33.187Z,663.75
2018-08-09T11:36:33.201Z,641.25
2018-08-09T11:37:33.216Z,624.38
2018-08-09T11:38:33.231Z,618.75
2018-08-09T11:39:33.268Z,607.50
2018-08-09T11:40:33.259Z,590.63
2018-08-09T11:41:33.275Z,579.38
2018-08-09T11:42:33.289Z,573.75
2018-08-09T11:43:33.305Z,590.63
2018-08-09T11:44:33.319Z,601.88
2018-08-09T11:45:33.332Z,618.75
2018-08-09T11:46:33.347Z,691.88
2018-08-09T11:47:33.367Z,675.00
2018-08-09T11:48:33.378Z,646.88
2018-08-09T11:49:33.396Z,697.50
2018-08-09T11:50:33.407Z,753.75
2018-08-09T11:51:33.424Z,776.25
2018-08-09T11:52:33.439Z,843.75
2018-08-09T11:53:33.455Z,905.63
2018-08-09T11:54:33.469Z,928.13
2018-08-09T11:55:33.484Z,916.88
2018-08-09T11:56:33.514Z,849.38
2018-08-09T11:57:33.524Z,849.38
2018-08-09T11:58:33.530Z,843.75
2018-08-09T11:59:33.546Z,810.00
2018-08-09T12:00:33.561Z,866.25
2018-08-09T12:01:33.622Z,337.50
2018-08-09T12:02:33.589Z,832.50
2018-08-09T12:03:33.608Z,388.13
2018-08-09T12:04:33.651Z,888.75
2018-08-09T12:05:33.636Z,866.25
2018-08-09T12:06:33.651Z,877.50
2018-08-09T12:07:33.665Z,860.63
2018-08-09T12:08:33.680Z,866.25
2018-08-09T12:09:33.719Z,832.50
2018-08-09T12:10:33.709Z,826.88
2018-08-09T12:11:33.724Z,821.25
2018-08-09T12:12:33.739Z,815.63
2018-08-09T12:13:33.775Z,804.38
2018-08-09T12:14:33.766Z,804.38
2018-08-09T12:15:33.782Z,781.88
2018-08-09T12:16:33.796Z,798.75
2018-08-09T12:17:33.811Z,810.00
2018-08-09T12:18:33.825Z,810.00
2018-08-09T12:19:33.841Z,765.00
2018-08-09T12:20:33.854Z,832.50
2018-08-09T12:21:33.866Z,905.63
2018-08-09T12:22:33.881Z,911.25
2018-08-09T12:23:33.894Z,928.13
2018-08-09T12:24:33.908Z,916.88
2018-08-09T12:25:34.000Z,1040.63
2018-08-09T12:26:34.044Z,1198.13
2018-08-09T12:27:33.955Z,1333.13
2018-08-09T12:28:33.967Z,1490.63
2018-08-09T12:29:33.981Z,1552.50
2018-08-09T12:30:33.997Z,1485.00
2018-08-09T12:31:34.013Z,1378.13
2018-08-09T12:32:34.023Z,1130.63
2018-08-09T12:33:34.037Z,939.38
2018-08-09T12:34:34.053Z,753.75
2018-08-09T12:35:34.065Z,652.50
2018-08-09T12:36:34.113Z,354.38
2018-08-09T12:37:34.096Z,511.88
2018-08-09T12:38:34.105Z,506.25
2018-08-09T12:39:34.120Z,495.00
2018-08-09T12:40:34.134Z,483.75
2018-08-09T12:41:34.148Z,444.38
2018-08-09T12:42:34.161Z,292.50
2018-08-09T12:43:34.175Z,444.38
2018-08-09T12:44:34.188Z,455.63